sensor_id;sensor_type;location;lat;lon;timestamp;temperature;humidity
35613;DHT22;22054;51.646;7.078;2023-03-19T00:02:25;10.70;99.90
35613;DHT22;22054;51.646;7.078;2023-03-19T00:04:50;10.70;99.90
35613;DHT22;22054;51.646;7.078;2023-03-19T00:07:16;10.80;99.90
35613;DHT22;22054;51.646;7.078;2023-03-19T00:09:43;10.80;99.90
35613;DHT22;22054;51.646;7.078;2023-03-19T00:12:10;10.80;99.90
35613;DHT22;22054;51.646;7.078;2023-03-19T00:14:36;10.80;99.90
35613;DHT22;22054;51.646;7.078;2023-03-19T00:17:02;10.80;99.90
35613;DHT22;22054;51.646;7.078;2023-03-19T00:19:28;10.90;99.90
35613;DHT22;22054;51.646;7.078;2023-03-19T00:21:54;10.90;99.90
35613;DHT22;22054;51.646;7.078;2023-03-19T00:24:21;11.00;99.90
35613;DHT22;22054;51.646;7.078;2023-03-19T00:26:46;11.00;99.90
35613;DHT22;22054;51.646;7.078;2023-03-19T00:29:12;11.10;99.90
35613;DHT22;22054;51.646;7.078;2023-03-19T00:31:39;11.10;99.90
35613;DHT22;22054;51.646;7.078;2023-03-19T00:34:06;11.00;99.90
35613;DHT22;22054;51.646;7.078;2023-03-19T00:36:32;11.00;99.90
35613;DHT22;22054;51.646;7.078;2023-03-19T00:38:58;11.10;99.90
35613;DHT22;22054;51.646;7.078;2023-03-19T00:41:24;11.10;99.90
35613;DHT22;22054;51.646;7.078;2023-03-19T00:43:56;11.20;99.90
35613;DHT22;22054;51.646;7.078;2023-03-19T00:46:23;11.30;99.90
35613;DHT22;22054;51.646;7.078;2023-03-19T00:48:50;11.30;99.90
35613;DHT22;22054;51.646;7.078;2023-03-19T00:51:26;11.70;99.90
35613;DHT22;22054;51.646;7.078;2023-03-19T00:53:51;11.50;99.90
35613;DHT22;22054;51.646;7.078;2023-03-19T00:56:18;11.40;99.90
35613;DHT22;22054;51.646;7.078;2023-03-19T00:58:44;11.30;99.90
35613;DHT22;22054;51.646;7.078;2023-03-19T01:01:12;11.10;99.90
35613;DHT22;22054;51.646;7.078;2023-03-19T01:03:40;11.00;99.90
35613;DHT22;22054;51.646;7.078;2023-03-19T01:06:06;10.90;99.90
35613;DHT22;22054;51.646;7.078;2023-03-19T01:08:32;10.80;99.90
35613;DHT22;22054;51.646;7.078;2023-03-19T01:11:24;10.90;99.90
35613;DHT22;22054;51.646;7.078;2023-03-19T01:13:50;10.70;99.90
35613;DHT22;22054;51.646;7.078;2023-03-19T01:16:16;10.70;99.90
35613;DHT22;22054;51.646;7.078;2023-03-19T01:18:41;10.60;99.90
35613;DHT22;22054;51.646;7.078;2023-03-19T01:21:07;10.60;99.90
35613;DHT22;22054;51.646;7.078;2023-03-19T01:23:33;10.70;99.90
35613;DHT22;22054;51.646;7.078;2023-03-19T01:25:59;10.60;99.90
35613;DHT22;22054;51.646;7.078;2023-03-19T01:28:25;10.80;99.90
35613;DHT22;22054;51.646;7.078;2023-03-19T01:30:51;10.70;99.90
35613;DHT22;22054;51.646;7.078;2023-03-19T01:33:16;10.70;99.90
35613;DHT22;22054;51.646;7.078;2023-03-19T01:35:45;10.70;99.90
35613;DHT22;22054;51.646;7.078;2023-03-19T01:38:14;10.80;99.90
35613;DHT22;22054;51.646;7.078;2023-03-19T01:40:45;10.50;99.90
35613;DHT22;22054;51.646;7.078;2023-03-19T01:45:47;10.50;99.90
35613;DHT22;22054;51.646;7.078;2023-03-19T01:51:16;10.30;99.90
35613;DHT22;22054;51.646;7.078;2023-03-19T01:53:47;10.30;99.90
35613;DHT22;22054;51.646;7.078;2023-03-19T01:56:30;10.30;99.90
35613;DHT22;22054;51.646;7.078;2023-03-19T01:59:01;10.20;99.90
35613;DHT22;22054;51.646;7.078;2023-03-19T02:01:31;10.10;99.90
35613;DHT22;22054;51.646;7.078;2023-03-19T02:03:58;10.10;99.90
35613;DHT22;22054;51.646;7.078;2023-03-19T02:06:25;9.90;99.90
35613;DHT22;22054;51.646;7.078;2023-03-19T02:08:55;10.00;99.90
35613;DHT22;22054;51.646;7.078;2023-03-19T02:11:21;10.00;99.90
35613;DHT22;22054;51.646;7.078;2023-03-19T02:13:47;10.00;99.90
35613;DHT22;22054;51.646;7.078;2023-03-19T02:16:13;9.80;99.90
35613;DHT22;22054;51.646;7.078;2023-03-19T02:18:40;9.90;99.90
35613;DHT22;22054;51.646;7.078;2023-03-19T02:21:24;9.90;99.90
35613;DHT22;22054;51.646;7.078;2023-03-19T02:24:08;9.90;99.90
35613;DHT22;22054;51.646;7.078;2023-03-19T02:26:38;10.00;99.90
35613;DHT22;22054;51.646;7.078;2023-03-19T02:29:05;9.90;99.90
35613;DHT22;22054;51.646;7.078;2023-03-19T02:31:31;10.00;99.90
35613;DHT22;22054;51.646;7.078;2023-03-19T02:36:42;10.00;99.90
35613;DHT22;22054;51.646;7.078;2023-03-19T02:39:22;10.10;99.90
35613;DHT22;22054;51.646;7.078;2023-03-19T02:41:53;10.10;99.90
35613;DHT22;22054;51.646;7.078;2023-03-19T02:44:20;10.10;99.90
35613;DHT22;22054;51.646;7.078;2023-03-19T02:46:46;10.20;99.90
35613;DHT22;22054;51.646;7.078;2023-03-19T02:49:12;10.00;99.90
35613;DHT22;22054;51.646;7.078;2023-03-19T02:51:37;10.20;99.90
35613;DHT22;22054;51.646;7.078;2023-03-19T02:54:03;10.10;99.90
35613;DHT22;22054;51.646;7.078;2023-03-19T02:56:30;10.10;99.90
35613;DHT22;22054;51.646;7.078;2023-03-19T02:58:56;10.10;99.90
35613;DHT22;22054;51.646;7.078;2023-03-19T03:01:21;10.10;99.90
35613;DHT22;22054;51.646;7.078;2023-03-19T03:03:47;10.20;99.90
35613;DHT22;22054;51.646;7.078;2023-03-19T03:06:13;10.20;99.90
35613;DHT22;22054;51.646;7.078;2023-03-19T03:08:40;10.20;99.90
35613;DHT22;22054;51.646;7.078;2023-03-19T03:11:05;10.20;99.90
35613;DHT22;22054;51.646;7.078;2023-03-19T03:13:32;10.40;99.90
35613;DHT22;22054;51.646;7.078;2023-03-19T03:15:57;10.20;99.90
35613;DHT22;22054;51.646;7.078;2023-03-19T03:18:23;10.20;99.90
35613;DHT22;22054;51.646;7.078;2023-03-19T03:20:49;10.20;99.90
35613;DHT22;22054;51.646;7.078;2023-03-19T03:23:15;10.20;99.90
35613;DHT22;22054;51.646;7.078;2023-03-19T03:25:41;10.20;99.90
35613;DHT22;22054;51.646;7.078;2023-03-19T03:28:07;10.10;99.90
35613;DHT22;22054;51.646;7.078;2023-03-19T03:30:33;10.30;99.90
35613;DHT22;22054;51.646;7.078;2023-03-19T03:32:58;10.30;99.90
35613;DHT22;22054;51.646;7.078;2023-03-19T03:35:24;10.30;99.90
35613;DHT22;22054;51.646;7.078;2023-03-19T03:37:51;10.30;99.90
35613;DHT22;22054;51.646;7.078;2023-03-19T03:40:17;10.30;99.90
35613;DHT22;22054;51.646;7.078;2023-03-19T03:42:43;10.30;99.90
35613;DHT22;22054;51.646;7.078;2023-03-19T03:45:10;10.30;99.90
35613;DHT22;22054;51.646;7.078;2023-03-19T03:47:36;10.30;99.90
35613;DHT22;22054;51.646;7.078;2023-03-19T03:50:03;10.30;99.90
35613;DHT22;22054;51.646;7.078;2023-03-19T03:52:30;10.30;99.90
35613;DHT22;22054;51.646;7.078;2023-03-19T03:54:58;10.40;99.90
35613;DHT22;22054;51.646;7.078;2023-03-19T03:57:24;10.40;99.90
35613;DHT22;22054;51.646;7.078;2023-03-19T03:59:50;10.40;99.90
35613;DHT22;22054;51.646;7.078;2023-03-19T04:02:16;10.50;99.90
35613;DHT22;22054;51.646;7.078;2023-03-19T04:04:42;10.40;99.90
35613;DHT22;22054;51.646;7.078;2023-03-19T04:07:08;10.40;99.90
35613;DHT22;22054;51.646;7.078;2023-03-19T04:09:34;10.30;99.90
35613;DHT22;22054;51.646;7.078;2023-03-19T04:12:00;10.40;99.90
35613;DHT22;22054;51.646;7.078;2023-03-19T04:14:26;10.40;99.90
35613;DHT22;22054;51.646;7.078;2023-03-19T04:16:52;10.40;99.90
35613;DHT22;22054;51.646;7.078;2023-03-19T04:19:18;10.40;99.90
35613;DHT22;22054;51.646;7.078;2023-03-19T04:21:44;10.40;99.90
35613;DHT22;22054;51.646;7.078;2023-03-19T04:24:11;10.50;99.90
35613;DHT22;22054;51.646;7.078;2023-03-19T04:26:37;10.60;99.90
35613;DHT22;22054;51.646;7.078;2023-03-19T04:29:03;10.60;99.90
35613;DHT22;22054;51.646;7.078;2023-03-19T04:31:29;10.60;99.90
35613;DHT22;22054;51.646;7.078;2023-03-19T04:33:55;10.70;99.90
35613;DHT22;22054;51.646;7.078;2023-03-19T04:36:21;10.60;99.90
35613;DHT22;22054;51.646;7.078;2023-03-19T04:38:48;10.80;99.90
35613;DHT22;22054;51.646;7.078;2023-03-19T04:41:14;10.50;99.90
35613;DHT22;22054;51.646;7.078;2023-03-19T04:43:40;10.50;99.90
35613;DHT22;22054;51.646;7.078;2023-03-19T04:46:06;10.60;99.90
35613;DHT22;22054;51.646;7.078;2023-03-19T04:48:33;10.60;99.90
35613;DHT22;22054;51.646;7.078;2023-03-19T04:51:01;10.70;99.90
35613;DHT22;22054;51.646;7.078;2023-03-19T04:53:28;10.70;99.90
35613;DHT22;22054;51.646;7.078;2023-03-19T04:55:57;10.80;99.90
35613;DHT22;22054;51.646;7.078;2023-03-19T04:58:23;11.00;99.90
35613;DHT22;22054;51.646;7.078;2023-03-19T05:00:49;11.00;99.90
35613;DHT22;22054;51.646;7.078;2023-03-19T05:03:15;10.90;99.90
35613;DHT22;22054;51.646;7.078;2023-03-19T05:05:41;11.10;99.90
35613;DHT22;22054;51.646;7.078;2023-03-19T05:08:08;11.10;99.90
35613;DHT22;22054;51.646;7.078;2023-03-19T05:10:35;11.10;99.90
35613;DHT22;22054;51.646;7.078;2023-03-19T05:13:02;11.40;99.90
35613;DHT22;22054;51.646;7.078;2023-03-19T05:15:28;11.20;99.90
35613;DHT22;22054;51.646;7.078;2023-03-19T05:17:54;11.30;99.90
35613;DHT22;22054;51.646;7.078;2023-03-19T05:20:21;11.30;99.90
35613;DHT22;22054;51.646;7.078;2023-03-19T05:22:49;11.40;99.90
35613;DHT22;22054;51.646;7.078;2023-03-19T05:25:17;11.40;99.90
35613;DHT22;22054;51.646;7.078;2023-03-19T05:27:44;11.40;99.90
35613;DHT22;22054;51.646;7.078;2023-03-19T05:30:10;11.70;99.90
35613;DHT22;22054;51.646;7.078;2023-03-19T05:32:37;11.40;99.90
35613;DHT22;22054;51.646;7.078;2023-03-19T05:35:05;11.40;99.90
35613;DHT22;22054;51.646;7.078;2023-03-19T05:37:31;11.50;99.90
35613;DHT22;22054;51.646;7.078;2023-03-19T05:39:56;11.60;99.90
35613;DHT22;22054;51.646;7.078;2023-03-19T05:42:22;11.50;99.90
35613;DHT22;22054;51.646;7.078;2023-03-19T05:44:48;11.50;99.90
35613;DHT22;22054;51.646;7.078;2023-03-19T05:47:14;11.40;99.90
35613;DHT22;22054;51.646;7.078;2023-03-19T05:49:40;11.30;99.90
35613;DHT22;22054;51.646;7.078;2023-03-19T05:52:06;11.10;99.90
35613;DHT22;22054;51.646;7.078;2023-03-19T05:54:32;11.10;99.90
35613;DHT22;22054;51.646;7.078;2023-03-19T05:56:58;11.10;99.90
35613;DHT22;22054;51.646;7.078;2023-03-19T05:59:24;11.30;99.90
35613;DHT22;22054;51.646;7.078;2023-03-19T06:01:50;10.80;99.90
35613;DHT22;22054;51.646;7.078;2023-03-19T06:04:17;11.00;99.90
35613;DHT22;22054;51.646;7.078;2023-03-19T06:06:43;11.00;99.90
35613;DHT22;22054;51.646;7.078;2023-03-19T06:09:09;11.10;99.90
35613;DHT22;22054;51.646;7.078;2023-03-19T06:11:35;11.10;99.90
35613;DHT22;22054;51.646;7.078;2023-03-19T06:14:03;10.90;99.90
35613;DHT22;22054;51.646;7.078;2023-03-19T06:16:30;11.00;99.90
35613;DHT22;22054;51.646;7.078;2023-03-19T06:18:55;11.00;99.90
35613;DHT22;22054;51.646;7.078;2023-03-19T06:21:21;10.80;99.90
35613;DHT22;22054;51.646;7.078;2023-03-19T06:23:47;10.90;99.90
35613;DHT22;22054;51.646;7.078;2023-03-19T06:26:13;11.10;99.90
35613;DHT22;22054;51.646;7.078;2023-03-19T06:28:38;11.00;99.90
35613;DHT22;22054;51.646;7.078;2023-03-19T06:31:04;11.00;99.90
35613;DHT22;22054;51.646;7.078;2023-03-19T06:33:30;11.00;99.90
35613;DHT22;22054;51.646;7.078;2023-03-19T06:35:58;11.00;99.90
35613;DHT22;22054;51.646;7.078;2023-03-19T06:38:24;11.00;99.90
35613;DHT22;22054;51.646;7.078;2023-03-19T06:40:50;11.00;99.90
35613;DHT22;22054;51.646;7.078;2023-03-19T06:43:15;11.00;99.90
35613;DHT22;22054;51.646;7.078;2023-03-19T06:45:41;11.00;99.90
35613;DHT22;22054;51.646;7.078;2023-03-19T06:48:07;11.00;99.90
35613;DHT22;22054;51.646;7.078;2023-03-19T06:50:33;11.00;99.90
35613;DHT22;22054;51.646;7.078;2023-03-19T06:52:58;11.10;99.90
35613;DHT22;22054;51.646;7.078;2023-03-19T06:55:24;11.10;99.90
35613;DHT22;22054;51.646;7.078;2023-03-19T06:57:50;11.00;99.90
35613;DHT22;22054;51.646;7.078;2023-03-19T07:00:17;11.10;99.90
35613;DHT22;22054;51.646;7.078;2023-03-19T07:02:44;11.00;99.90
35613;DHT22;22054;51.646;7.078;2023-03-19T07:05:10;11.00;99.90
35613;DHT22;22054;51.646;7.078;2023-03-19T07:07:35;11.00;99.90
35613;DHT22;22054;51.646;7.078;2023-03-19T07:10:01;11.00;99.90
35613;DHT22;22054;51.646;7.078;2023-03-19T07:12:28;11.00;99.90
35613;DHT22;22054;51.646;7.078;2023-03-19T07:14:54;11.00;99.90
35613;DHT22;22054;51.646;7.078;2023-03-19T07:17:21;11.00;99.90
35613;DHT22;22054;51.646;7.078;2023-03-19T07:19:50;11.00;99.90
35613;DHT22;22054;51.646;7.078;2023-03-19T07:22:16;11.10;99.90
35613;DHT22;22054;51.646;7.078;2023-03-19T07:24:42;11.10;99.90
35613;DHT22;22054;51.646;7.078;2023-03-19T07:27:08;11.10;99.90
35613;DHT22;22054;51.646;7.078;2023-03-19T07:29:35;11.20;99.90
35613;DHT22;22054;51.646;7.078;2023-03-19T07:32:01;11.60;99.90
35613;DHT22;22054;51.646;7.078;2023-03-19T07:34:27;11.40;99.90
35613;DHT22;22054;51.646;7.078;2023-03-19T07:36:53;11.60;99.90
35613;DHT22;22054;51.646;7.078;2023-03-19T07:39:19;11.90;99.90
35613;DHT22;22054;51.646;7.078;2023-03-19T07:41:45;11.80;99.90
35613;DHT22;22054;51.646;7.078;2023-03-19T07:44:14;11.80;99.90
35613;DHT22;22054;51.646;7.078;2023-03-19T07:46:41;11.90;99.90
35613;DHT22;22054;51.646;7.078;2023-03-19T07:49:07;11.90;99.90
35613;DHT22;22054;51.646;7.078;2023-03-19T07:51:33;11.90;99.90
35613;DHT22;22054;51.646;7.078;2023-03-19T07:53:59;11.90;99.90
35613;DHT22;22054;51.646;7.078;2023-03-19T07:56:25;12.10;99.90
35613;DHT22;22054;51.646;7.078;2023-03-19T07:58:51;11.90;99.90
35613;DHT22;22054;51.646;7.078;2023-03-19T08:01:18;11.90;99.90
35613;DHT22;22054;51.646;7.078;2023-03-19T08:03:44;11.80;99.90
35613;DHT22;22054;51.646;7.078;2023-03-19T08:06:15;11.80;99.90
35613;DHT22;22054;51.646;7.078;2023-03-19T08:08:40;11.90;99.90
35613;DHT22;22054;51.646;7.078;2023-03-19T08:11:06;12.00;99.90
35613;DHT22;22054;51.646;7.078;2023-03-19T08:13:33;12.00;99.90
35613;DHT22;22054;51.646;7.078;2023-03-19T08:15:59;12.10;99.90
35613;DHT22;22054;51.646;7.078;2023-03-19T08:18:25;12.00;99.90
35613;DHT22;22054;51.646;7.078;2023-03-19T08:20:51;12.00;99.90
35613;DHT22;22054;51.646;7.078;2023-03-19T08:23:17;12.00;99.90
35613;DHT22;22054;51.646;7.078;2023-03-19T08:25:43;12.00;99.90
35613;DHT22;22054;51.646;7.078;2023-03-19T08:28:10;12.00;99.90
35613;DHT22;22054;51.646;7.078;2023-03-19T08:30:36;11.90;99.90
35613;DHT22;22054;51.646;7.078;2023-03-19T08:33:05;11.90;99.90
35613;DHT22;22054;51.646;7.078;2023-03-19T08:35:31;12.00;99.90
35613;DHT22;22054;51.646;7.078;2023-03-19T08:37:56;12.00;99.90
35613;DHT22;22054;51.646;7.078;2023-03-19T08:40:23;12.20;99.90
35613;DHT22;22054;51.646;7.078;2023-03-19T08:42:49;12.40;99.90
35613;DHT22;22054;51.646;7.078;2023-03-19T08:45:15;12.70;99.90
35613;DHT22;22054;51.646;7.078;2023-03-19T08:47:42;12.90;99.90
35613;DHT22;22054;51.646;7.078;2023-03-19T08:50:09;12.80;99.90
35613;DHT22;22054;51.646;7.078;2023-03-19T08:52:35;12.80;99.90
35613;DHT22;22054;51.646;7.078;2023-03-19T08:55:01;12.70;99.90
35613;DHT22;22054;51.646;7.078;2023-03-19T08:57:29;12.60;99.90
35613;DHT22;22054;51.646;7.078;2023-03-19T08:59:58;12.30;99.90
35613;DHT22;22054;51.646;7.078;2023-03-19T09:02:25;12.40;99.90
35613;DHT22;22054;51.646;7.078;2023-03-19T09:04:51;12.40;99.90
35613;DHT22;22054;51.646;7.078;2023-03-19T09:07:17;12.60;99.90
35613;DHT22;22054;51.646;7.078;2023-03-19T09:09:43;12.80;99.90
35613;DHT22;22054;51.646;7.078;2023-03-19T09:12:13;12.80;99.90
35613;DHT22;22054;51.646;7.078;2023-03-19T09:14:41;12.90;99.90
35613;DHT22;22054;51.646;7.078;2023-03-19T09:17:10;12.80;99.90
35613;DHT22;22054;51.646;7.078;2023-03-19T09:19:37;13.00;99.90
35613;DHT22;22054;51.646;7.078;2023-03-19T09:22:04;13.10;99.90
35613;DHT22;22054;51.646;7.078;2023-03-19T09:24:30;13.00;99.90
35613;DHT22;22054;51.646;7.078;2023-03-19T09:26:58;13.20;99.90
35613;DHT22;22054;51.646;7.078;2023-03-19T09:29:24;13.30;99.90
35613;DHT22;22054;51.646;7.078;2023-03-19T09:31:50;13.60;99.90
35613;DHT22;22054;51.646;7.078;2023-03-19T09:34:15;13.90;99.90
35613;DHT22;22054;51.646;7.078;2023-03-19T09:36:44;13.70;99.90
35613;DHT22;22054;51.646;7.078;2023-03-19T09:39:10;14.20;99.90
35613;DHT22;22054;51.646;7.078;2023-03-19T09:41:54;13.90;99.90
35613;DHT22;22054;51.646;7.078;2023-03-19T09:44:36;14.40;99.90
35613;DHT22;22054;51.646;7.078;2023-03-19T09:47:33;14.60;99.90
35613;DHT22;22054;51.646;7.078;2023-03-19T09:50:23;14.60;99.90
35613;DHT22;22054;51.646;7.078;2023-03-19T09:55:51;14.90;99.90
35613;DHT22;22054;51.646;7.078;2023-03-19T09:58:32;14.90;99.90
35613;DHT22;22054;51.646;7.078;2023-03-19T10:01:00;14.90;99.30
35613;DHT22;22054;51.646;7.078;2023-03-19T10:17:45;13.70;99.90
35613;DHT22;22054;51.646;7.078;2023-03-19T10:23:45;13.60;99.90
35613;DHT22;22054;51.646;7.078;2023-03-19T10:26:19;13.60;99.90
35613;DHT22;22054;51.646;7.078;2023-03-19T10:29:11;13.70;99.90
35613;DHT22;22054;51.646;7.078;2023-03-19T10:34:36;14.00;99.90
35613;DHT22;22054;51.646;7.078;2023-03-19T10:37:14;14.20;99.90
35613;DHT22;22054;51.646;7.078;2023-03-19T10:39:46;14.20;99.90
35613;DHT22;22054;51.646;7.078;2023-03-19T10:45:33;14.50;99.90
35613;DHT22;22054;51.646;7.078;2023-03-19T10:48:02;14.80;56.00
35613;DHT22;22054;51.646;7.078;2023-03-19T10:50:49;14.90;55.00
35613;DHT22;22054;51.646;7.078;2023-03-19T10:56:17;14.90;31.30
35613;DHT22;22054;51.646;7.078;2023-03-19T10:58:58;15.00;53.00
35613;DHT22;22054;51.646;7.078;2023-03-19T11:01:33;14.90;47.00
35613;DHT22;22054;51.646;7.078;2023-03-19T11:04:25;14.60;95.60
35613;DHT22;22054;51.646;7.078;2023-03-19T11:06:55;14.40;81.50
35613;DHT22;22054;51.646;7.078;2023-03-19T11:09:36;14.00;46.80
35613;DHT22;22054;51.646;7.078;2023-03-19T11:14:51;13.60;99.90
35613;DHT22;22054;51.646;7.078;2023-03-19T11:17:38;13.60;99.90
35613;DHT22;22054;51.646;7.078;2023-03-19T11:20:30;13.70;99.90
35613;DHT22;22054;51.646;7.078;2023-03-19T11:22:58;13.80;99.90
35613;DHT22;22054;51.646;7.078;2023-03-19T11:25:49;13.90;99.90
35613;DHT22;22054;51.646;7.078;2023-03-19T11:28:21;14.00;99.90
35613;DHT22;22054;51.646;7.078;2023-03-19T11:34:07;13.90;99.90
35613;DHT22;22054;51.646;7.078;2023-03-19T11:39:58;13.60;99.90
35613;DHT22;22054;51.646;7.078;2023-03-19T11:49:00;13.30;99.90
35613;DHT22;22054;51.646;7.078;2023-03-19T11:51:34;13.30;99.90
35613;DHT22;22054;51.646;7.078;2023-03-19T12:00:55;13.20;99.90
35613;DHT22;22054;51.646;7.078;2023-03-19T12:10:01;12.80;99.90
35613;DHT22;22054;51.646;7.078;2023-03-19T12:21:19;13.60;99.90
35613;DHT22;22054;51.646;7.078;2023-03-19T12:24:03;13.90;99.90
35613;DHT22;22054;51.646;7.078;2023-03-19T12:26:35;14.20;99.90
35613;DHT22;22054;51.646;7.078;2023-03-19T12:29:19;14.70;99.90
35613;DHT22;22054;51.646;7.078;2023-03-19T12:32:09;15.20;99.90
35613;DHT22;22054;51.646;7.078;2023-03-19T12:35:15;17.20;1.00
35613;DHT22;22054;51.646;7.078;2023-03-19T12:37:59;21.10;1.00
35613;DHT22;22054;51.646;7.078;2023-03-19T12:40:52;23.80;1.00
35613;DHT22;22054;51.646;7.078;2023-03-19T12:55:19;23.60;99.90
35613;DHT22;22054;51.646;7.078;2023-03-19T13:01:38;20.50;99.90
35613;DHT22;22054;51.646;7.078;2023-03-19T13:04:25;18.80;99.90
35613;DHT22;22054;51.646;7.078;2023-03-19T13:07:05;18.10;99.90
35613;DHT22;22054;51.646;7.078;2023-03-19T13:09:35;17.70;99.90
35613;DHT22;22054;51.646;7.078;2023-03-19T13:12:21;17.20;99.90
35613;DHT22;22054;51.646;7.078;2023-03-19T13:14:54;17.30;99.90
35613;DHT22;22054;51.646;7.078;2023-03-19T13:18:02;17.10;99.90
35613;DHT22;22054;51.646;7.078;2023-03-19T13:23:42;16.80;99.90
35613;DHT22;22054;51.646;7.078;2023-03-19T13:26:11;16.60;99.90
35613;DHT22;22054;51.646;7.078;2023-03-19T13:29:06;16.80;99.90
35613;DHT22;22054;51.646;7.078;2023-03-19T13:31:35;17.40;99.90
35613;DHT22;22054;51.646;7.078;2023-03-19T13:34:05;17.90;99.90
35613;DHT22;22054;51.646;7.078;2023-03-19T13:36:37;18.30;99.90
35613;DHT22;22054;51.646;7.078;2023-03-19T13:39:25;18.60;99.90
35613;DHT22;22054;51.646;7.078;2023-03-19T13:44:53;19.60;99.90
35613;DHT22;22054;51.646;7.078;2023-03-19T13:52:47;19.10;99.90
35613;DHT22;22054;51.646;7.078;2023-03-19T13:55:29;19.10;99.90
35613;DHT22;22054;51.646;7.078;2023-03-19T13:58:17;21.00;99.90
35613;DHT22;22054;51.646;7.078;2023-03-19T14:04:04;23.80;99.90
35613;DHT22;22054;51.646;7.078;2023-03-19T14:09:33;24.80;99.90
35613;DHT22;22054;51.646;7.078;2023-03-19T14:12:37;23.50;99.90
35613;DHT22;22054;51.646;7.078;2023-03-19T14:23:01;19.80;99.90
35613;DHT22;22054;51.646;7.078;2023-03-19T14:34:48;18.90;99.90
35613;DHT22;22054;51.646;7.078;2023-03-19T14:37:56;18.40;99.90
35613;DHT22;22054;51.646;7.078;2023-03-19T14:56:34;16.50;99.90
35613;DHT22;22054;51.646;7.078;2023-03-19T15:01:59;16.20;99.90
35613;DHT22;22054;51.646;7.078;2023-03-19T15:21:22;15.50;99.90
35613;DHT22;22054;51.646;7.078;2023-03-19T15:23:48;15.40;99.90
35613;DHT22;22054;51.646;7.078;2023-03-19T15:26:46;15.40;99.90
35613;DHT22;22054;51.646;7.078;2023-03-19T15:29:15;15.20;99.90
35613;DHT22;22054;51.646;7.078;2023-03-19T15:31:49;15.40;99.90
35613;DHT22;22054;51.646;7.078;2023-03-19T15:34:29;15.50;99.90
35613;DHT22;22054;51.646;7.078;2023-03-19T15:37:15;15.60;99.90
35613;DHT22;22054;51.646;7.078;2023-03-19T15:40:17;15.70;99.90
35613;DHT22;22054;51.646;7.078;2023-03-19T15:43:14;15.70;99.90
35613;DHT22;22054;51.646;7.078;2023-03-19T15:46:20;16.10;99.90
35613;DHT22;22054;51.646;7.078;2023-03-19T15:52:48;16.40;99.90
35613;DHT22;22054;51.646;7.078;2023-03-19T15:55:41;17.30;99.90
35613;DHT22;22054;51.646;7.078;2023-03-19T15:58:11;17.50;99.90
35613;DHT22;22054;51.646;7.078;2023-03-19T16:00:41;17.40;99.90
35613;DHT22;22054;51.646;7.078;2023-03-19T16:03:16;17.20;99.90
35613;DHT22;22054;51.646;7.078;2023-03-19T16:05:43;17.20;99.90
35613;DHT22;22054;51.646;7.078;2023-03-19T16:08:24;17.30;99.90
35613;DHT22;22054;51.646;7.078;2023-03-19T16:10:51;17.70;99.90
35613;DHT22;22054;51.646;7.078;2023-03-19T16:13:36;17.50;99.90
35613;DHT22;22054;51.646;7.078;2023-03-19T16:16:27;17.20;99.90
35613;DHT22;22054;51.646;7.078;2023-03-19T16:18:55;17.00;99.90
35613;DHT22;22054;51.646;7.078;2023-03-19T16:21:39;16.80;99.90
35613;DHT22;22054;51.646;7.078;2023-03-19T16:24:29;16.90;99.90
35613;DHT22;22054;51.646;7.078;2023-03-19T16:27:02;18.00;99.90
35613;DHT22;22054;51.646;7.078;2023-03-19T16:30:18;19.40;99.90
35613;DHT22;22054;51.646;7.078;2023-03-19T16:32:35;19.50;99.90
35613;DHT22;22054;51.646;7.078;2023-03-19T16:35:17;19.30;99.90
35613;DHT22;22054;51.646;7.078;2023-03-19T16:37:54;18.70;99.90
35613;DHT22;22054;51.646;7.078;2023-03-19T16:43:20;17.50;99.90
35613;DHT22;22054;51.646;7.078;2023-03-19T16:46:04;16.80;99.90
35613;DHT22;22054;51.646;7.078;2023-03-19T16:48:33;16.30;99.90
35613;DHT22;22054;51.646;7.078;2023-03-19T16:50:59;15.90;99.90
35613;DHT22;22054;51.646;7.078;2023-03-19T16:53:29;15.60;99.90
35613;DHT22;22054;51.646;7.078;2023-03-19T16:55:57;15.40;99.90
35613;DHT22;22054;51.646;7.078;2023-03-19T16:58:36;15.20;99.90
35613;DHT22;22054;51.646;7.078;2023-03-19T17:01:33;14.90;99.90
35613;DHT22;22054;51.646;7.078;2023-03-19T17:03:58;14.80;99.90
35613;DHT22;22054;51.646;7.078;2023-03-19T17:06:24;14.60;99.90
35613;DHT22;22054;51.646;7.078;2023-03-19T17:08:53;14.50;99.90
35613;DHT22;22054;51.646;7.078;2023-03-19T17:11:23;14.40;99.90
35613;DHT22;22054;51.646;7.078;2023-03-19T17:13:54;14.40;99.90
35613;DHT22;22054;51.646;7.078;2023-03-19T17:16:22;14.40;99.90
35613;DHT22;22054;51.646;7.078;2023-03-19T17:18:48;14.30;99.90
35613;DHT22;22054;51.646;7.078;2023-03-19T17:21:20;14.30;99.90
35613;DHT22;22054;51.646;7.078;2023-03-19T17:23:49;14.30;99.90
35613;DHT22;22054;51.646;7.078;2023-03-19T17:26:22;14.20;99.90
35613;DHT22;22054;51.646;7.078;2023-03-19T17:28:51;14.20;99.90
35613;DHT22;22054;51.646;7.078;2023-03-19T17:34:05;14.10;99.90
35613;DHT22;22054;51.646;7.078;2023-03-19T17:36:34;14.10;99.90
35613;DHT22;22054;51.646;7.078;2023-03-19T17:39:00;14.00;99.90
35613;DHT22;22054;51.646;7.078;2023-03-19T17:41:27;14.00;99.90
35613;DHT22;22054;51.646;7.078;2023-03-19T17:43:54;14.10;99.90
35613;DHT22;22054;51.646;7.078;2023-03-19T17:46:23;14.00;99.90
35613;DHT22;22054;51.646;7.078;2023-03-19T17:48:50;13.80;99.90
35613;DHT22;22054;51.646;7.078;2023-03-19T17:51:17;13.80;99.90
35613;DHT22;22054;51.646;7.078;2023-03-19T17:53:47;13.80;99.90
35613;DHT22;22054;51.646;7.078;2023-03-19T17:56:18;13.80;99.90
35613;DHT22;22054;51.646;7.078;2023-03-19T17:58:46;13.70;99.90
35613;DHT22;22054;51.646;7.078;2023-03-19T18:01:21;13.70;99.90
35613;DHT22;22054;51.646;7.078;2023-03-19T18:03:49;13.70;99.90
35613;DHT22;22054;51.646;7.078;2023-03-19T18:06:17;13.60;99.90
35613;DHT22;22054;51.646;7.078;2023-03-19T18:08:45;13.50;99.90
35613;DHT22;22054;51.646;7.078;2023-03-19T18:11:12;13.60;99.90
35613;DHT22;22054;51.646;7.078;2023-03-19T18:13:38;13.30;99.90
35613;DHT22;22054;51.646;7.078;2023-03-19T18:16:15;13.30;99.90
35613;DHT22;22054;51.646;7.078;2023-03-19T18:18:45;13.20;99.90
35613;DHT22;22054;51.646;7.078;2023-03-19T18:21:14;13.10;99.90
35613;DHT22;22054;51.646;7.078;2023-03-19T18:23:41;13.00;99.90
35613;DHT22;22054;51.646;7.078;2023-03-19T18:26:07;13.10;99.90
35613;DHT22;22054;51.646;7.078;2023-03-19T18:28:33;13.10;99.90
35613;DHT22;22054;51.646;7.078;2023-03-19T18:30:59;13.10;99.90
35613;DHT22;22054;51.646;7.078;2023-03-19T18:33:28;13.00;99.90
35613;DHT22;22054;51.646;7.078;2023-03-19T18:35:55;13.10;99.90
35613;DHT22;22054;51.646;7.078;2023-03-19T18:38:23;13.00;99.90
35613;DHT22;22054;51.646;7.078;2023-03-19T18:40:51;12.90;99.90
35613;DHT22;22054;51.646;7.078;2023-03-19T18:43:17;12.80;99.90